»·PEaware :: UAL576 KPSP-KSFO

UAL576 :: KPSP-KSFO

FLIGHT INFORMATION

Flight Status: Arrived
Operator:
United Airlines
More flights by this operator :: More flights under this callsign
Pilot: Anonymous 8274 (8274)
Aircraft: BOEING 737-200
(B732)
More flights by this aircraft type
Origin: KPSP Palm Springs Intl
United States
Destination: KSFO San Francisco Intl
United States
More flights between these airports :: More routes between these airports
Route: CATH1 PSP V386 PMD J6 ROBIE BSR BSR3
File this flight plan on PilotEdge
Remarks:
Altitude:
(Current/Filed)
30,000ft
Speed:
(Current/Filed)
460kts
Departed: 30-Dec-17 07:45 PM
Arrived: 30-Dec-17 09:03 PM
Distance/Time
Traveled:
365nm/1:18
Distance/Time
To Go:
Arrived

Flight Plot

Page will automatically refresh every two minutes.

Flight plan parsing failed; only flown route is shown


Map Options




Map Legend


Flown Route
Filed Route
Departure Airport
Arrival Airport
Navaid (VOR, NDB)
Fix

Horizontal Profiles

Position Reports

Time Latitude Longitude Heading Altitude Ground
Speed
30-Dec-17 19:29 33.822550 -116.506214 323 486ft 0kts
30-Dec-17 19:30 33.822540 -116.506206 323 486ft 0kts
30-Dec-17 19:31 33.822540 -116.506206 323 486ft 0kts
30-Dec-17 19:32 33.822540 -116.506206 323 486ft 0kts
30-Dec-17 19:33 33.822540 -116.506206 323 486ft 0kts
30-Dec-17 19:34 33.822540 -116.506206 323 486ft 0kts
30-Dec-17 19:35 33.822540 -116.506206 323 486ft 0kts
30-Dec-17 19:36 33.822540 -116.506206 323 486ft 0kts
30-Dec-17 19:37 33.822540 -116.506206 323 486ft 0kts
30-Dec-17 19:38 33.822540 -116.506206 323 486ft 0kts
30-Dec-17 19:39 33.822540 -116.506206 323 486ft 0kts
30-Dec-17 19:40 33.822541 -116.506208 323 486ft 0kts
30-Dec-17 19:41 33.822068 -116.506127 66 486ft 1kts
30-Dec-17 19:42 33.822049 -116.506185 69 486ft 0kts
30-Dec-17 19:43 33.822049 -116.506185 69 486ft 0kts
30-Dec-17 19:44 33.822049 -116.506184 69 486ft 0kts
30-Dec-17 19:45 33.822450 -116.505225 52 486ft 6kts
30-Dec-17 19:46 33.821961 -116.502819 143 486ft 16kts
30-Dec-17 19:47 33.818492 -116.499136 88 486ft 2kts
30-Dec-17 19:48 33.818492 -116.499134 88 486ft 0kts
30-Dec-17 19:49 33.818492 -116.499134 88 486ft 0kts
30-Dec-17 19:50 33.818505 -116.498844 85 486ft 7kts
30-Dec-17 19:51 33.820087 -116.499138 323 486ft 55kts
30-Dec-17 19:52 33.855606 -116.530172 322 2489ft 180kts
30-Dec-17 19:53 33.893862 -116.566882 321 4949ft 229kts
30-Dec-17 19:54 33.954782 -116.545734 69 7485ft 288kts
30-Dec-17 19:55 33.910709 -116.458651 150 10997ft 296kts
30-Dec-17 19:56 33.852469 -116.413352 133 13026ft 317kts
30-Dec-17 19:57 33.821603 -116.311449 118 13028ft 326kts
30-Dec-17 19:58 33.782586 -116.214003 98 12991ft 324kts
30-Dec-17 19:59 33.831971 -116.138305 2 13070ft 322kts
30-Dec-17 20:00 33.895282 -116.203383 289 14205ft 344kts
30-Dec-17 20:01 33.930679 -116.309823 291 16348ft 353kts
30-Dec-17 20:02 33.972680 -116.417841 295 18129ft 366kts
30-Dec-17 20:03 34.025249 -116.523311 299 19716ft 377kts
30-Dec-17 20:04 34.080035 -116.628522 299 21057ft 386kts
30-Dec-17 20:05 34.128481 -116.720584 299 22265ft 389kts
30-Dec-17 20:06 34.162594 -116.784871 299 22993ft 392kts
30-Dec-17 20:07 34.210883 -116.883598 294 24012ft 394kts
30-Dec-17 20:08 34.257741 -117.001662 291 25135ft 395kts
30-Dec-17 20:09 34.293861 -117.109579 287 25971ft 397kts
30-Dec-17 20:10 34.333257 -117.234722 287 26891ft 399kts
30-Dec-17 20:11 34.372831 -117.360923 287 27534ft 405kts
30-Dec-17 20:12 34.414824 -117.488077 290 28334ft 404kts
30-Dec-17 20:13 34.459896 -117.611719 291 29042ft 404kts
30-Dec-17 20:14 34.502417 -117.720082 293 29784ft 401kts
30-Dec-17 20:15 34.552775 -117.841602 292 30133ft 408kts
30-Dec-17 20:16 34.600869 -117.968475 291 30133ft 421kts
30-Dec-17 20:17 34.650062 -118.098663 291 30131ft 431kts
30-Dec-17 20:18 34.732775 -118.199862 321 30124ft 441kts
30-Dec-17 20:19 34.804681 -118.312080 301 30126ft 423kts
30-Dec-17 20:20 34.874401 -118.421990 305 30092ft 420kts
30-Dec-17 20:21 34.942666 -118.526099 305 29992ft 418kts
30-Dec-17 20:22 35.012264 -118.631962 305 29990ft 414kts
30-Dec-17 20:23 35.070916 -118.721073 304 29997ft 412kts
30-Dec-17 20:24 35.142567 -118.820769 308 29993ft 411kts
30-Dec-17 20:25 35.192704 -118.941741 289 29996ft 403kts
30-Dec-17 20:26 35.234798 -119.067749 289 30091ft 405kts
30-Dec-17 20:27 35.277275 -119.194373 289 30101ft 408kts
30-Dec-17 20:28 35.320611 -119.323404 289 30100ft 411kts
30-Dec-17 20:29 35.363887 -119.452096 289 30099ft 413kts
30-Dec-17 20:30 35.421762 -119.573772 305 30097ft 422kts
30-Dec-17 20:31 35.497721 -119.675397 309 30106ft 426kts
30-Dec-17 20:32 35.570806 -119.787878 293 30121ft 419kts
30-Dec-17 20:33 35.622360 -119.914544 291 30123ft 420kts
30-Dec-17 20:34 35.668374 -120.045973 286 30132ft 418kts
30-Dec-17 20:35 35.709350 -120.179755 290 30130ft 420kts
30-Dec-17 20:36 35.756204 -120.311125 290 30075ft 422kts
30-Dec-17 20:37 35.802467 -120.443250 288 30074ft 421kts
30-Dec-17 20:38 35.845031 -120.574944 288 30073ft 421kts
30-Dec-17 20:39 35.884560 -120.696911 288 30079ft 421kts
30-Dec-17 20:40 35.925564 -120.823374 288 30078ft 422kts
30-Dec-17 20:41 35.968570 -120.955876 288 30077ft 423kts
30-Dec-17 20:42 36.006055 -121.088128 285 30077ft 422kts
30-Dec-17 20:43 36.042426 -121.220256 285 30076ft 422kts
30-Dec-17 20:44 36.077339 -121.340467 290 30078ft 424kts
30-Dec-17 20:45 36.127178 -121.450116 294 30068ft 427kts
30-Dec-17 20:46 36.175622 -121.578838 291 28280ft 414kts
30-Dec-17 20:47 36.243257 -121.687222 316 25804ft 411kts
30-Dec-17 20:48 36.330386 -121.774663 321 23411ft 399kts
30-Dec-17 20:49 36.421972 -121.847681 322 21137ft 386kts
30-Dec-17 20:50 36.511636 -121.915189 343 18890ft 380kts
30-Dec-17 20:51 36.612712 -121.942006 346 16747ft 369kts
30-Dec-17 20:52 36.711443 -121.963949 349 14674ft 358kts
30-Dec-17 20:53 36.807363 -121.981046 350 12684ft 347kts
30-Dec-17 20:54 36.900817 -121.998431 350 10747ft 336kts
30-Dec-17 20:55 36.985053 -122.016816 346 9958ft 293kts
30-Dec-17 20:56 37.059492 -122.037282 346 9214ft 269kts
30-Dec-17 20:57 37.130806 -122.059919 344 7730ft 267kts
30-Dec-17 20:58 37.198446 -122.081923 344 6975ft 260kts
30-Dec-17 20:59 37.266567 -122.104033 344 6455ft 254kts
30-Dec-17 21:00 37.334772 -122.124662 347 5337ft 251kts
30-Dec-17 21:01 37.402451 -122.142098 347 4267ft 247kts
30-Dec-17 21:02 37.465689 -122.158383 346 3953ft 212kts
30-Dec-17 21:03 37.521466 -122.173764 346 3147ft 192kts
30-Dec-17 21:04 37.550791 -122.212958 291 2788ft 154kts
30-Dec-17 21:05 37.567911 -122.255266 299 1986ft 129kts
30-Dec-17 21:06 37.585078 -122.294960 298 1127ft 126kts
30-Dec-17 21:07 37.601466 -122.333990 297 486ft 126kts
30-Dec-17 21:08 37.617169 -122.371356 298 21ft 91kts
30-Dec-17 21:09 37.619471 -122.379580 228 21ft 0kts
30-Dec-17 21:10 37.619423 -122.379646 227 21ft 3kts
30-Dec-17 21:11 37.614808 -122.380836 208 21ft 22kts
30-Dec-17 21:12 37.611384 -122.384530 257 21ft 14kts
30-Dec-17 21:13 37.610144 -122.388123 219 21ft 0kts

Navigation Log

Ident Type
Flight plan parsing failed, navigation log unavailable